Terminal Aerodrome Forecast
Issued by NWS

Home | Current Version | Previous Version | Text Only | Print | Product List | Glossary On
Versions: 1 2 3 4 5 6 7 8 9 10 11 12 13 14 15 16 17 18 19 20 21 22 23 24
000
FTAK31 PAFA 222338
TAFAOR
TAF
PAOR 222338Z 2300/2324 VRB03KT P6SM VCSH SCT070 BKN200
      TEMPO 2300/2304 -SHRA BKN060
     FM230800 VRB04KT P6SM SCT070=

USA.gov is the U.S. government's official web portal to all federal, state and local government web resources and services.